sensor_id;sensor_type;location;lat;lon;timestamp;temperature;humidity
20284;DHT22;10301;50.832;4.080;2023-05-07T00:01:57;17.90;1.00
20284;DHT22;10301;50.832;4.080;2023-05-07T00:04:22;17.80;1.00
20284;DHT22;10301;50.832;4.080;2023-05-07T00:06:48;17.80;1.00
20284;DHT22;10301;50.832;4.080;2023-05-07T00:09:13;17.80;1.00
20284;DHT22;10301;50.832;4.080;2023-05-07T00:11:39;17.50;1.00
20284;DHT22;10301;50.832;4.080;2023-05-07T00:14:05;17.20;1.00
20284;DHT22;10301;50.832;4.080;2023-05-07T00:16:31;17.20;1.00
20284;DHT22;10301;50.832;4.080;2023-05-07T00:18:57;17.20;1.00
20284;DHT22;10301;50.832;4.080;2023-05-07T00:21:22;17.00;1.00
20284;DHT22;10301;50.832;4.080;2023-05-07T00:23:52;16.90;1.00
20284;DHT22;10301;50.832;4.080;2023-05-07T00:26:18;16.70;1.00
20284;DHT22;10301;50.832;4.080;2023-05-07T00:28:43;16.80;1.00
20284;DHT22;10301;50.832;4.080;2023-05-07T00:31:09;17.00;1.00
20284;DHT22;10301;50.832;4.080;2023-05-07T00:33:35;17.00;1.00
20284;DHT22;10301;50.832;4.080;2023-05-07T00:36:01;17.00;1.00
20284;DHT22;10301;50.832;4.080;2023-05-07T00:38:28;17.00;1.00
20284;DHT22;10301;50.832;4.080;2023-05-07T00:40:54;17.10;1.00
20284;DHT22;10301;50.832;4.080;2023-05-07T00:43:19;17.10;1.00
20284;DHT22;10301;50.832;4.080;2023-05-07T00:45:45;17.00;1.00
20284;DHT22;10301;50.832;4.080;2023-05-07T00:48:11;17.00;1.00
20284;DHT22;10301;50.832;4.080;2023-05-07T00:50:37;16.80;1.00
20284;DHT22;10301;50.832;4.080;2023-05-07T00:53:04;16.70;1.00
20284;DHT22;10301;50.832;4.080;2023-05-07T00:55:30;16.60;1.00
20284;DHT22;10301;50.832;4.080;2023-05-07T00:57:55;16.50;1.00
20284;DHT22;10301;50.832;4.080;2023-05-07T01:00:21;16.40;1.00
20284;DHT22;10301;50.832;4.080;2023-05-07T01:02:47;16.40;1.00
20284;DHT22;10301;50.832;4.080;2023-05-07T01:05:15;16.40;1.00
20284;DHT22;10301;50.832;4.080;2023-05-07T01:07:42;16.40;1.00
20284;DHT22;10301;50.832;4.080;2023-05-07T01:10:09;16.50;1.00
20284;DHT22;10301;50.832;4.080;2023-05-07T01:12:37;16.40;1.00
20284;DHT22;10301;50.832;4.080;2023-05-07T01:15:05;16.40;1.00
20284;DHT22;10301;50.832;4.080;2023-05-07T01:17:36;16.40;1.00
20284;DHT22;10301;50.832;4.080;2023-05-07T01:20:02;16.20;1.00
20284;DHT22;10301;50.832;4.080;2023-05-07T01:22:34;16.10;1.00
20284;DHT22;10301;50.832;4.080;2023-05-07T01:25:03;16.10;1.00
20284;DHT22;10301;50.832;4.080;2023-05-07T01:27:29;16.10;1.00
20284;DHT22;10301;50.832;4.080;2023-05-07T01:29:54;16.10;1.00
20284;DHT22;10301;50.832;4.080;2023-05-07T01:32:38;16.00;1.00
20284;DHT22;10301;50.832;4.080;2023-05-07T01:35:07;16.00;1.00
20284;DHT22;10301;50.832;4.080;2023-05-07T01:37:33;15.90;1.00
20284;DHT22;10301;50.832;4.080;2023-05-07T01:40:01;16.00;1.00
20284;DHT22;10301;50.832;4.080;2023-05-07T01:42:27;16.00;1.00
20284;DHT22;10301;50.832;4.080;2023-05-07T01:44:53;16.00;1.00
20284;DHT22;10301;50.832;4.080;2023-05-07T01:47:19;16.30;1.00
20284;DHT22;10301;50.832;4.080;2023-05-07T01:49:45;16.50;1.00
20284;DHT22;10301;50.832;4.080;2023-05-07T01:52:11;16.50;1.00
20284;DHT22;10301;50.832;4.080;2023-05-07T01:54:37;16.40;1.00
20284;DHT22;10301;50.832;4.080;2023-05-07T01:57:03;16.30;1.00
20284;DHT22;10301;50.832;4.080;2023-05-07T01:59:28;16.20;1.00
20284;DHT22;10301;50.832;4.080;2023-05-07T02:01:54;16.20;1.00
20284;DHT22;10301;50.832;4.080;2023-05-07T02:04:20;16.20;1.00
20284;DHT22;10301;50.832;4.080;2023-05-07T02:06:45;16.10;1.00
20284;DHT22;10301;50.832;4.080;2023-05-07T02:09:11;16.00;1.00
20284;DHT22;10301;50.832;4.080;2023-05-07T02:11:37;16.00;1.00
20284;DHT22;10301;50.832;4.080;2023-05-07T02:14:02;16.00;1.30
20284;DHT22;10301;50.832;4.080;2023-05-07T02:16:28;16.00;1.00
20284;DHT22;10301;50.832;4.080;2023-05-07T02:18:54;16.10;1.00
20284;DHT22;10301;50.832;4.080;2023-05-07T02:21:20;16.20;1.00
20284;DHT22;10301;50.832;4.080;2023-05-07T02:23:45;16.30;1.00
20284;DHT22;10301;50.832;4.080;2023-05-07T02:26:11;16.20;1.00
20284;DHT22;10301;50.832;4.080;2023-05-07T02:28:37;16.20;1.00
20284;DHT22;10301;50.832;4.080;2023-05-07T02:31:05;16.20;1.00
20284;DHT22;10301;50.832;4.080;2023-05-07T02:33:31;16.20;1.00
20284;DHT22;10301;50.832;4.080;2023-05-07T02:36:04;16.30;1.00
20284;DHT22;10301;50.832;4.080;2023-05-07T02:38:30;16.50;1.00
20284;DHT22;10301;50.832;4.080;2023-05-07T02:40:55;16.60;1.00
20284;DHT22;10301;50.832;4.080;2023-05-07T02:43:21;16.40;1.00
20284;DHT22;10301;50.832;4.080;2023-05-07T02:45:47;16.30;1.00
20284;DHT22;10301;50.832;4.080;2023-05-07T02:48:12;16.30;1.00
20284;DHT22;10301;50.832;4.080;2023-05-07T02:50:38;16.40;1.00
20284;DHT22;10301;50.832;4.080;2023-05-07T02:53:04;16.40;1.00
20284;DHT22;10301;50.832;4.080;2023-05-07T02:55:30;16.50;1.00
20284;DHT22;10301;50.832;4.080;2023-05-07T02:57:55;16.40;1.00
20284;DHT22;10301;50.832;4.080;2023-05-07T03:00:21;16.40;1.00
20284;DHT22;10301;50.832;4.080;2023-05-07T03:02:47;16.20;1.00
20284;DHT22;10301;50.832;4.080;2023-05-07T03:05:13;16.20;1.00
20284;DHT22;10301;50.832;4.080;2023-05-07T03:07:39;16.10;1.00
20284;DHT22;10301;50.832;4.080;2023-05-07T03:10:06;16.20;1.00
20284;DHT22;10301;50.832;4.080;2023-05-07T03:12:32;16.10;1.00
20284;DHT22;10301;50.832;4.080;2023-05-07T03:14:57;16.10;1.00
20284;DHT22;10301;50.832;4.080;2023-05-07T03:17:23;16.20;1.00
20284;DHT22;10301;50.832;4.080;2023-05-07T03:19:49;16.30;1.00
20284;DHT22;10301;50.832;4.080;2023-05-07T03:22:14;16.40;1.00
20284;DHT22;10301;50.832;4.080;2023-05-07T03:24:40;16.30;1.00
20284;DHT22;10301;50.832;4.080;2023-05-07T03:27:06;16.20;1.00
20284;DHT22;10301;50.832;4.080;2023-05-07T03:29:31;16.20;1.00
20284;DHT22;10301;50.832;4.080;2023-05-07T03:31:57;16.20;1.00
20284;DHT22;10301;50.832;4.080;2023-05-07T03:34:23;16.20;1.20
20284;DHT22;10301;50.832;4.080;2023-05-07T03:36:49;16.40;1.00
20284;DHT22;10301;50.832;4.080;2023-05-07T03:39:15;16.30;1.00
20284;DHT22;10301;50.832;4.080;2023-05-07T03:41:40;16.30;1.00
20284;DHT22;10301;50.832;4.080;2023-05-07T03:44:06;16.30;1.00
20284;DHT22;10301;50.832;4.080;2023-05-07T03:46:33;16.30;1.00
20284;DHT22;10301;50.832;4.080;2023-05-07T03:48:58;16.30;1.00
20284;DHT22;10301;50.832;4.080;2023-05-07T03:51:24;16.50;1.00
20284;DHT22;10301;50.832;4.080;2023-05-07T03:53:51;16.50;1.00
20284;DHT22;10301;50.832;4.080;2023-05-07T03:56:19;16.60;1.00
20284;DHT22;10301;50.832;4.080;2023-05-07T03:58:47;16.70;1.00
20284;DHT22;10301;50.832;4.080;2023-05-07T04:01:12;17.00;1.00
20284;DHT22;10301;50.832;4.080;2023-05-07T04:03:38;17.00;1.00
20284;DHT22;10301;50.832;4.080;2023-05-07T04:06:04;16.80;1.00
20284;DHT22;10301;50.832;4.080;2023-05-07T04:08:30;16.60;1.00
20284;DHT22;10301;50.832;4.080;2023-05-07T04:10:59;16.50;1.00
20284;DHT22;10301;50.832;4.080;2023-05-07T04:13:25;16.60;1.00
20284;DHT22;10301;50.832;4.080;2023-05-07T04:15:52;16.60;1.00
20284;DHT22;10301;50.832;4.080;2023-05-07T04:18:17;16.70;1.00
20284;DHT22;10301;50.832;4.080;2023-05-07T04:20:43;16.70;1.00
20284;DHT22;10301;50.832;4.080;2023-05-07T04:23:09;16.80;1.00
20284;DHT22;10301;50.832;4.080;2023-05-07T04:25:34;16.60;1.00
20284;DHT22;10301;50.832;4.080;2023-05-07T04:28:00;16.70;1.00
20284;DHT22;10301;50.832;4.080;2023-05-07T04:30:26;16.70;1.00
20284;DHT22;10301;50.832;4.080;2023-05-07T04:32:52;16.90;1.00
20284;DHT22;10301;50.832;4.080;2023-05-07T04:35:18;16.90;1.00
20284;DHT22;10301;50.832;4.080;2023-05-07T04:37:44;16.80;1.00
20284;DHT22;10301;50.832;4.080;2023-05-07T04:40:10;16.80;1.00
20284;DHT22;10301;50.832;4.080;2023-05-07T04:42:36;16.70;1.00
20284;DHT22;10301;50.832;4.080;2023-05-07T04:45:02;16.90;1.00
20284;DHT22;10301;50.832;4.080;2023-05-07T04:47:27;16.80;1.00
20284;DHT22;10301;50.832;4.080;2023-05-07T04:49:53;16.90;1.00
20284;DHT22;10301;50.832;4.080;2023-05-07T04:52:19;17.00;1.00
20284;DHT22;10301;50.832;4.080;2023-05-07T04:54:44;16.80;1.00
20284;DHT22;10301;50.832;4.080;2023-05-07T04:57:10;16.80;1.00
20284;DHT22;10301;50.832;4.080;2023-05-07T04:59:36;16.80;1.00
20284;DHT22;10301;50.832;4.080;2023-05-07T05:02:02;16.90;1.00
20284;DHT22;10301;50.832;4.080;2023-05-07T05:04:29;17.30;1.00
20284;DHT22;10301;50.832;4.080;2023-05-07T05:06:55;17.60;1.00
20284;DHT22;10301;50.832;4.080;2023-05-07T05:09:21;17.70;1.00
20284;DHT22;10301;50.832;4.080;2023-05-07T05:11:46;17.70;1.00
20284;DHT22;10301;50.832;4.080;2023-05-07T05:14:12;17.50;1.00
20284;DHT22;10301;50.832;4.080;2023-05-07T05:16:38;17.50;1.00
20284;DHT22;10301;50.832;4.080;2023-05-07T05:19:04;17.50;1.00
20284;DHT22;10301;50.832;4.080;2023-05-07T05:21:31;17.40;1.00
20284;DHT22;10301;50.832;4.080;2023-05-07T05:23:57;17.30;1.00
20284;DHT22;10301;50.832;4.080;2023-05-07T05:26:22;17.10;1.00
20284;DHT22;10301;50.832;4.080;2023-05-07T05:28:48;17.10;1.00
20284;DHT22;10301;50.832;4.080;2023-05-07T05:31:13;17.00;1.00
20284;DHT22;10301;50.832;4.080;2023-05-07T05:33:39;16.80;1.00
20284;DHT22;10301;50.832;4.080;2023-05-07T05:36:06;16.70;1.00
20284;DHT22;10301;50.832;4.080;2023-05-07T05:38:32;16.80;1.00
20284;DHT22;10301;50.832;4.080;2023-05-07T05:40:57;16.90;1.00
20284;DHT22;10301;50.832;4.080;2023-05-07T05:43:23;17.00;1.00
20284;DHT22;10301;50.832;4.080;2023-05-07T05:45:49;17.00;1.00
20284;DHT22;10301;50.832;4.080;2023-05-07T05:48:14;17.10;1.00
20284;DHT22;10301;50.832;4.080;2023-05-07T05:50:42;17.10;1.00
20284;DHT22;10301;50.832;4.080;2023-05-07T05:53:07;17.20;1.00
20284;DHT22;10301;50.832;4.080;2023-05-07T05:55:33;17.30;1.00
20284;DHT22;10301;50.832;4.080;2023-05-07T05:58:00;17.30;1.00
20284;DHT22;10301;50.832;4.080;2023-05-07T06:00:26;17.30;1.00
20284;DHT22;10301;50.832;4.080;2023-05-07T06:02:52;17.30;1.00
20284;DHT22;10301;50.832;4.080;2023-05-07T06:05:18;17.30;1.00
20284;DHT22;10301;50.832;4.080;2023-05-07T06:07:44;17.30;1.00
20284;DHT22;10301;50.832;4.080;2023-05-07T06:10:10;17.50;1.00
20284;DHT22;10301;50.832;4.080;2023-05-07T06:12:35;17.40;1.00
20284;DHT22;10301;50.832;4.080;2023-05-07T06:15:01;17.40;1.00
20284;DHT22;10301;50.832;4.080;2023-05-07T06:17:27;17.50;1.00
20284;DHT22;10301;50.832;4.080;2023-05-07T06:19:52;17.40;1.00
20284;DHT22;10301;50.832;4.080;2023-05-07T06:22:18;17.40;1.00
20284;DHT22;10301;50.832;4.080;2023-05-07T06:24:44;17.50;1.00
20284;DHT22;10301;50.832;4.080;2023-05-07T06:27:10;17.30;13.60
20284;DHT22;10301;50.832;4.080;2023-05-07T06:29:35;17.40;14.00
20284;DHT22;10301;50.832;4.080;2023-05-07T06:32:12;17.30;21.50
20284;DHT22;10301;50.832;4.080;2023-05-07T06:34:39;17.40;23.00
20284;DHT22;10301;50.832;4.080;2023-05-07T06:37:06;17.40;24.30
20284;DHT22;10301;50.832;4.080;2023-05-07T06:39:32;17.50;29.40
20284;DHT22;10301;50.832;4.080;2023-05-07T06:41:58;17.60;25.30
20284;DHT22;10301;50.832;4.080;2023-05-07T06:44:23;17.60;30.50
20284;DHT22;10301;50.832;4.080;2023-05-07T06:46:49;17.60;31.30
20284;DHT22;10301;50.832;4.080;2023-05-07T06:49:15;17.50;38.60
20284;DHT22;10301;50.832;4.080;2023-05-07T06:51:41;17.70;29.70
20284;DHT22;10301;50.832;4.080;2023-05-07T06:54:07;17.80;26.70
20284;DHT22;10301;50.832;4.080;2023-05-07T06:56:33;17.80;22.70
20284;DHT22;10301;50.832;4.080;2023-05-07T06:59:00;17.70;33.20
20284;DHT22;10301;50.832;4.080;2023-05-07T07:01:26;17.70;37.40
20284;DHT22;10301;50.832;4.080;2023-05-07T07:03:52;17.70;45.30
20284;DHT22;10301;50.832;4.080;2023-05-07T07:06:17;17.80;48.00
20284;DHT22;10301;50.832;4.080;2023-05-07T07:08:43;17.80;39.00
20284;DHT22;10301;50.832;4.080;2023-05-07T07:11:10;17.70;43.80
20284;DHT22;10301;50.832;4.080;2023-05-07T07:13:35;17.80;50.20
20284;DHT22;10301;50.832;4.080;2023-05-07T07:16:01;17.80;52.30
20284;DHT22;10301;50.832;4.080;2023-05-07T07:18:27;17.90;42.10
20284;DHT22;10301;50.832;4.080;2023-05-07T07:20:53;17.90;40.50
20284;DHT22;10301;50.832;4.080;2023-05-07T07:23:18;18.00;43.40
20284;DHT22;10301;50.832;4.080;2023-05-07T07:25:44;18.00;41.10
20284;DHT22;10301;50.832;4.080;2023-05-07T07:28:10;18.00;44.90
20284;DHT22;10301;50.832;4.080;2023-05-07T07:30:39;18.10;45.50
20284;DHT22;10301;50.832;4.080;2023-05-07T07:33:05;18.10;52.00
20284;DHT22;10301;50.832;4.080;2023-05-07T07:35:31;18.10;46.80
20284;DHT22;10301;50.832;4.080;2023-05-07T07:37:57;18.30;42.10
20284;DHT22;10301;50.832;4.080;2023-05-07T07:40:23;18.40;32.60
20284;DHT22;10301;50.832;4.080;2023-05-07T07:42:49;18.50;31.10
20284;DHT22;10301;50.832;4.080;2023-05-07T07:45:15;18.50;29.30
20284;DHT22;10301;50.832;4.080;2023-05-07T07:47:42;18.40;30.50
20284;DHT22;10301;50.832;4.080;2023-05-07T07:50:08;18.50;33.10
20284;DHT22;10301;50.832;4.080;2023-05-07T07:52:34;18.60;25.10
20284;DHT22;10301;50.832;4.080;2023-05-07T07:55:00;18.50;19.60
20284;DHT22;10301;50.832;4.080;2023-05-07T07:57:26;18.50;23.90
20284;DHT22;10301;50.832;4.080;2023-05-07T07:59:51;18.50;28.90
20284;DHT22;10301;50.832;4.080;2023-05-07T08:02:17;18.30;37.30
20284;DHT22;10301;50.832;4.080;2023-05-07T08:04:43;18.50;41.80
20284;DHT22;10301;50.832;4.080;2023-05-07T08:07:12;18.50;43.50
20284;DHT22;10301;50.832;4.080;2023-05-07T08:09:38;18.50;49.50
20284;DHT22;10301;50.832;4.080;2023-05-07T08:12:05;18.60;40.20
20284;DHT22;10301;50.832;4.080;2023-05-07T08:14:31;18.80;33.80
20284;DHT22;10301;50.832;4.080;2023-05-07T08:16:57;19.00;21.50
20284;DHT22;10301;50.832;4.080;2023-05-07T08:19:23;18.80;17.60
20284;DHT22;10301;50.832;4.080;2023-05-07T08:21:48;18.80;29.10
20284;DHT22;10301;50.832;4.080;2023-05-07T08:24:15;19.00;14.40
20284;DHT22;10301;50.832;4.080;2023-05-07T08:26:41;18.80;17.40
20284;DHT22;10301;50.832;4.080;2023-05-07T08:29:07;19.00;24.10
20284;DHT22;10301;50.832;4.080;2023-05-07T08:31:33;18.80;28.00
20284;DHT22;10301;50.832;4.080;2023-05-07T08:33:59;19.00;21.30
20284;DHT22;10301;50.832;4.080;2023-05-07T08:36:25;19.20;19.40
20284;DHT22;10301;50.832;4.080;2023-05-07T08:38:54;19.30;1.00
20284;DHT22;10301;50.832;4.080;2023-05-07T08:41:20;19.40;1.00
20284;DHT22;10301;50.832;4.080;2023-05-07T08:43:50;19.30;1.00
20284;DHT22;10301;50.832;4.080;2023-05-07T08:46:20;19.40;3.40
20284;DHT22;10301;50.832;4.080;2023-05-07T08:48:53;19.30;11.10
20284;DHT22;10301;50.832;4.080;2023-05-07T08:51:20;19.30;8.30
20284;DHT22;10301;50.832;4.080;2023-05-07T08:53:47;19.20;14.70
20284;DHT22;10301;50.832;4.080;2023-05-07T08:56:14;19.40;27.50
20284;DHT22;10301;50.832;4.080;2023-05-07T08:58:41;19.50;20.20
20284;DHT22;10301;50.832;4.080;2023-05-07T09:01:14;19.80;16.20
20284;DHT22;10301;50.832;4.080;2023-05-07T09:03:40;20.00;1.00
20284;DHT22;10301;50.832;4.080;2023-05-07T09:06:06;19.80;1.00
20284;DHT22;10301;50.832;4.080;2023-05-07T09:08:35;19.80;1.00
20284;DHT22;10301;50.832;4.080;2023-05-07T09:11:01;20.00;1.00
20284;DHT22;10301;50.832;4.080;2023-05-07T09:13:27;19.90;1.00
20284;DHT22;10301;50.832;4.080;2023-05-07T09:15:53;20.00;1.00
20284;DHT22;10301;50.832;4.080;2023-05-07T09:18:19;20.00;1.00
20284;DHT22;10301;50.832;4.080;2023-05-07T09:20:45;19.90;1.00
20284;DHT22;10301;50.832;4.080;2023-05-07T09:23:10;19.90;1.00
20284;DHT22;10301;50.832;4.080;2023-05-07T09:25:37;19.80;1.00
20284;DHT22;10301;50.832;4.080;2023-05-07T09:28:04;19.60;18.00
20284;DHT22;10301;50.832;4.080;2023-05-07T09:30:31;19.80;6.80
20284;DHT22;10301;50.832;4.080;2023-05-07T09:33:01;19.80;4.10
20284;DHT22;10301;50.832;4.080;2023-05-07T09:35:27;19.80;8.80
20284;DHT22;10301;50.832;4.080;2023-05-07T09:37:59;19.80;7.00
20284;DHT22;10301;50.832;4.080;2023-05-07T09:40:29;19.90;1.00
20284;DHT22;10301;50.832;4.080;2023-05-07T09:42:55;19.90;1.00
20284;DHT22;10301;50.832;4.080;2023-05-07T09:45:25;19.90;10.30
20284;DHT22;10301;50.832;4.080;2023-05-07T09:47:54;20.10;6.80
20284;DHT22;10301;50.832;4.080;2023-05-07T09:50:28;20.10;1.00
20284;DHT22;10301;50.832;4.080;2023-05-07T09:52:56;20.10;1.00
20284;DHT22;10301;50.832;4.080;2023-05-07T09:55:22;20.20;1.00
20284;DHT22;10301;50.832;4.080;2023-05-07T09:57:52;20.20;1.00
20284;DHT22;10301;50.832;4.080;2023-05-07T10:00:19;20.30;1.00
20284;DHT22;10301;50.832;4.080;2023-05-07T10:02:51;20.30;1.00
20284;DHT22;10301;50.832;4.080;2023-05-07T10:05:21;20.30;1.00
20284;DHT22;10301;50.832;4.080;2023-05-07T10:07:48;20.20;1.80
20284;DHT22;10301;50.832;4.080;2023-05-07T10:10:15;20.20;5.50
20284;DHT22;10301;50.832;4.080;2023-05-07T10:12:41;20.30;4.50
20284;DHT22;10301;50.832;4.080;2023-05-07T10:15:11;20.30;1.00
20284;DHT22;10301;50.832;4.080;2023-05-07T10:17:38;20.20;1.00
20284;DHT22;10301;50.832;4.080;2023-05-07T10:20:05;20.20;6.00
20284;DHT22;10301;50.832;4.080;2023-05-07T10:22:40;20.30;1.00
20284;DHT22;10301;50.832;4.080;2023-05-07T10:25:14;20.50;1.00
20284;DHT22;10301;50.832;4.080;2023-05-07T10:27:41;20.70;1.00
20284;DHT22;10301;50.832;4.080;2023-05-07T10:30:22;20.80;1.00
20284;DHT22;10301;50.832;4.080;2023-05-07T10:32:55;20.80;1.00
20284;DHT22;10301;50.832;4.080;2023-05-07T10:35:25;20.70;1.00
20284;DHT22;10301;50.832;4.080;2023-05-07T10:37:51;20.50;1.00
20284;DHT22;10301;50.832;4.080;2023-05-07T10:40:17;20.40;1.00
20284;DHT22;10301;50.832;4.080;2023-05-07T10:43:04;20.20;1.00
20284;DHT22;10301;50.832;4.080;2023-05-07T10:45:30;20.00;19.60
20284;DHT22;10301;50.832;4.080;2023-05-07T10:48:13;20.00;8.10
20284;DHT22;10301;50.832;4.080;2023-05-07T10:50:41;19.90;16.80
20284;DHT22;10301;50.832;4.080;2023-05-07T10:55:42;19.80;43.20
20284;DHT22;10301;50.832;4.080;2023-05-07T10:58:23;20.40;13.20
20284;DHT22;10301;50.832;4.080;2023-05-07T11:00:50;20.00;23.70
20284;DHT22;10301;50.832;4.080;2023-05-07T11:03:17;20.20;29.40
20284;DHT22;10301;50.832;4.080;2023-05-07T11:05:42;20.40;26.10
20284;DHT22;10301;50.832;4.080;2023-05-07T11:08:09;20.40;1.90
20284;DHT22;10301;50.832;4.080;2023-05-07T11:10:52;20.50;3.30
20284;DHT22;10301;50.832;4.080;2023-05-07T11:16:20;21.60;1.00
20284;DHT22;10301;50.832;4.080;2023-05-07T11:18:51;22.00;1.00
20284;DHT22;10301;50.832;4.080;2023-05-07T11:21:39;22.30;1.00
20284;DHT22;10301;50.832;4.080;2023-05-07T11:24:07;22.50;1.00
20284;DHT22;10301;50.832;4.080;2023-05-07T11:26:43;22.80;1.00
20284;DHT22;10301;50.832;4.080;2023-05-07T11:29:15;23.00;1.00
20284;DHT22;10301;50.832;4.080;2023-05-07T11:31:41;23.10;1.00
20284;DHT22;10301;50.832;4.080;2023-05-07T11:34:07;23.10;1.00
20284;DHT22;10301;50.832;4.080;2023-05-07T11:36:33;23.10;1.00
20284;DHT22;10301;50.832;4.080;2023-05-07T11:38:59;22.70;1.00
20284;DHT22;10301;50.832;4.080;2023-05-07T11:41:35;22.90;1.00
20284;DHT22;10301;50.832;4.080;2023-05-07T11:44:02;22.60;1.00
20284;DHT22;10301;50.832;4.080;2023-05-07T11:46:28;22.50;1.00
20284;DHT22;10301;50.832;4.080;2023-05-07T11:48:54;22.60;1.00
20284;DHT22;10301;50.832;4.080;2023-05-07T11:51:22;22.60;1.00
20284;DHT22;10301;50.832;4.080;2023-05-07T11:53:49;22.50;1.00
20284;DHT22;10301;50.832;4.080;2023-05-07T11:56:16;22.30;1.00
20284;DHT22;10301;50.832;4.080;2023-05-07T11:58:44;22.60;1.00
20284;DHT22;10301;50.832;4.080;2023-05-07T12:01:12;22.80;1.00
20284;DHT22;10301;50.832;4.080;2023-05-07T12:03:40;22.90;1.00
20284;DHT22;10301;50.832;4.080;2023-05-07T12:06:08;22.80;1.00
20284;DHT22;10301;50.832;4.080;2023-05-07T12:08:37;22.50;1.00
20284;DHT22;10301;50.832;4.080;2023-05-07T12:11:15;22.80;1.00
20284;DHT22;10301;50.832;4.080;2023-05-07T12:13:43;23.00;1.00
20284;DHT22;10301;50.832;4.080;2023-05-07T12:16:09;23.10;1.00
20284;DHT22;10301;50.832;4.080;2023-05-07T12:18:36;22.70;1.00
20284;DHT22;10301;50.832;4.080;2023-05-07T12:21:04;23.00;1.00
20284;DHT22;10301;50.832;4.080;2023-05-07T12:23:30;23.30;1.00
20284;DHT22;10301;50.832;4.080;2023-05-07T12:25:56;23.40;1.00
20284;DHT22;10301;50.832;4.080;2023-05-07T12:28:21;23.30;1.00
20284;DHT22;10301;50.832;4.080;2023-05-07T12:30:48;23.70;1.00
20284;DHT22;10301;50.832;4.080;2023-05-07T12:33:18;24.00;1.00
20284;DHT22;10301;50.832;4.080;2023-05-07T12:35:47;24.20;1.00
20284;DHT22;10301;50.832;4.080;2023-05-07T12:38:15;24.10;1.00
20284;DHT22;10301;50.832;4.080;2023-05-07T12:40:46;24.10;1.00
20284;DHT22;10301;50.832;4.080;2023-05-07T12:43:19;23.80;1.00
20284;DHT22;10301;50.832;4.080;2023-05-07T12:45:47;23.80;1.00
20284;DHT22;10301;50.832;4.080;2023-05-07T12:48:13;23.80;1.00
20284;DHT22;10301;50.832;4.080;2023-05-07T12:50:39;23.60;1.00
20284;DHT22;10301;50.832;4.080;2023-05-07T12:53:06;23.30;1.00
20284;DHT22;10301;50.832;4.080;2023-05-07T12:55:43;23.10;1.00
20284;DHT22;10301;50.832;4.080;2023-05-07T12:58:21;23.10;1.00
20284;DHT22;10301;50.832;4.080;2023-05-07T13:00:50;23.10;1.00
20284;DHT22;10301;50.832;4.080;2023-05-07T13:03:30;23.20;1.00
20284;DHT22;10301;50.832;4.080;2023-05-07T13:06:07;23.10;1.00
20284;DHT22;10301;50.832;4.080;2023-05-07T13:08:39;22.80;1.00
20284;DHT22;10301;50.832;4.080;2023-05-07T13:11:07;22.80;1.00
20284;DHT22;10301;50.832;4.080;2023-05-07T13:13:35;22.60;1.00
20284;DHT22;10301;50.832;4.080;2023-05-07T13:16:04;22.10;1.00
20284;DHT22;10301;50.832;4.080;2023-05-07T13:18:31;22.30;1.00
20284;DHT22;10301;50.832;4.080;2023-05-07T13:20:57;22.50;1.00
20284;DHT22;10301;50.832;4.080;2023-05-07T13:23:23;22.80;1.00
20284;DHT22;10301;50.832;4.080;2023-05-07T13:25:49;22.90;1.00
20284;DHT22;10301;50.832;4.080;2023-05-07T13:28:15;23.10;1.00
20284;DHT22;10301;50.832;4.080;2023-05-07T13:30:41;23.00;1.00
20284;DHT22;10301;50.832;4.080;2023-05-07T13:33:08;23.00;1.00
20284;DHT22;10301;50.832;4.080;2023-05-07T13:35:34;22.40;1.00
20284;DHT22;10301;50.832;4.080;2023-05-07T13:38:00;22.20;1.00
20284;DHT22;10301;50.832;4.080;2023-05-07T13:40:26;22.00;1.00
20284;DHT22;10301;50.832;4.080;2023-05-07T13:42:52;22.30;1.00
20284;DHT22;10301;50.832;4.080;2023-05-07T13:45:18;22.40;1.00
20284;DHT22;10301;50.832;4.080;2023-05-07T13:47:45;22.70;1.00
20284;DHT22;10301;50.832;4.080;2023-05-07T13:50:11;22.80;1.00
20284;DHT22;10301;50.832;4.080;2023-05-07T13:52:42;23.00;1.00
20284;DHT22;10301;50.832;4.080;2023-05-07T13:55:11;23.00;99.90
20284;DHT22;10301;50.832;4.080;2023-05-07T13:57:38;23.10;99.90
20284;DHT22;10301;50.832;4.080;2023-05-07T14:00:04;23.10;1.00
20284;DHT22;10301;50.832;4.080;2023-05-07T14:02:31;23.10;1.00
20284;DHT22;10301;50.832;4.080;2023-05-07T14:04:56;23.30;99.90
20284;DHT22;10301;50.832;4.080;2023-05-07T14:07:22;23.80;1.00
20284;DHT22;10301;50.832;4.080;2023-05-07T14:09:48;23.40;99.90
20284;DHT22;10301;50.832;4.080;2023-05-07T14:12:14;23.50;99.90
20284;DHT22;10301;50.832;4.080;2023-05-07T14:14:39;23.00;99.90
20284;DHT22;10301;50.832;4.080;2023-05-07T14:17:05;22.60;1.00
20284;DHT22;10301;50.832;4.080;2023-05-07T14:19:31;22.90;1.00
20284;DHT22;10301;50.832;4.080;2023-05-07T14:21:56;23.20;1.00
20284;DHT22;10301;50.832;4.080;2023-05-07T14:24:23;23.40;99.90
20284;DHT22;10301;50.832;4.080;2023-05-07T14:26:49;23.00;1.00
20284;DHT22;10301;50.832;4.080;2023-05-07T14:29:15;23.20;1.00
20284;DHT22;10301;50.832;4.080;2023-05-07T14:31:44;23.10;1.00
20284;DHT22;10301;50.832;4.080;2023-05-07T14:34:10;23.40;1.00
20284;DHT22;10301;50.832;4.080;2023-05-07T14:36:36;23.60;66.70
20284;DHT22;10301;50.832;4.080;2023-05-07T14:39:03;23.80;1.00
20284;DHT22;10301;50.832;4.080;2023-05-07T14:41:29;23.90;1.00
20284;DHT22;10301;50.832;4.080;2023-05-07T14:43:54;23.80;99.90
20284;DHT22;10301;50.832;4.080;2023-05-07T14:46:20;23.80;1.00
20284;DHT22;10301;50.832;4.080;2023-05-07T14:48:46;23.90;1.00
20284;DHT22;10301;50.832;4.080;2023-05-07T14:51:12;23.70;99.90
20284;DHT22;10301;50.832;4.080;2023-05-07T14:53:40;23.60;1.00
20284;DHT22;10301;50.832;4.080;2023-05-07T14:56:05;23.50;99.90
20284;DHT22;10301;50.832;4.080;2023-05-07T14:58:31;23.60;55.40
20284;DHT22;10301;50.832;4.080;2023-05-07T15:00:57;23.70;1.00
20284;DHT22;10301;50.832;4.080;2023-05-07T15:03:22;23.70;1.00
20284;DHT22;10301;50.832;4.080;2023-05-07T15:05:48;23.80;1.00
20284;DHT22;10301;50.832;4.080;2023-05-07T15:08:17;23.60;1.00
20284;DHT22;10301;50.832;4.080;2023-05-07T15:10:42;23.40;49.80
20284;DHT22;10301;50.832;4.080;2023-05-07T15:13:10;23.50;1.00
20284;DHT22;10301;50.832;4.080;2023-05-07T15:15:35;23.50;1.00
20284;DHT22;10301;50.832;4.080;2023-05-07T15:18:02;23.30;99.90
20284;DHT22;10301;50.832;4.080;2023-05-07T15:20:28;23.20;99.90
20284;DHT22;10301;50.832;4.080;2023-05-07T15:22:53;22.80;99.90
20284;DHT22;10301;50.832;4.080;2023-05-07T15:25:19;22.90;99.90
20284;DHT22;10301;50.832;4.080;2023-05-07T15:27:46;22.90;99.90
20284;DHT22;10301;50.832;4.080;2023-05-07T15:30:12;22.60;1.00
20284;DHT22;10301;50.832;4.080;2023-05-07T15:32:40;22.60;1.00
20284;DHT22;10301;50.832;4.080;2023-05-07T15:35:06;22.90;1.00
20284;DHT22;10301;50.832;4.080;2023-05-07T15:37:32;23.00;99.90
20284;DHT22;10301;50.832;4.080;2023-05-07T15:39:58;22.90;1.00
20284;DHT22;10301;50.832;4.080;2023-05-07T15:42:23;22.60;1.00
20284;DHT22;10301;50.832;4.080;2023-05-07T15:44:49;22.90;1.00
20284;DHT22;10301;50.832;4.080;2023-05-07T15:47:15;22.40;1.00